Aviation Digital Data Service (ADDS)

Output produced by METARs form (1141 UTC 27 May 2017)
found at http://www.aviationweather.gov/adds/metars/
 
LKCV 271100Z 06008KT 010V130 9999 FEW044 22/08 Q1023 NOSIG RMK BLU+ BLU
TAF LKCV 270500Z 2706/2806 04006KT CAVOK 
     TEMPO 2710/2718 03011KT 
     BECMG 2720/2722 12006KT
       
LKCV 271100Z 06008KT 010V130 9999 FEW044 22/08 Q1023 NOSIG RMK BLU+ BLU
TAF LKCV 270500Z 2706/2806 04006KT CAVOK 
     TEMPO 2710/2718 03011KT 
     BECMG 2720/2722 12006KT
       
LKKB 271100Z 08004KT 010V090 9999 SCT043 22/12 Q1024 NOSIG
TAF LKKB 270500Z 2706/2806 03004KT CAVOK 
     BECMG 2708/2710 08004KT SCT030 
     BECMG 2714/2716 12004KT CAVOK
       
LKKU 270900Z 01015KT 9999 FEW045 20/09 Q1022
LKKV 271130Z 08007KT 050V130 9999 FEW046 21/09 Q1023
TAF LKKV 271100Z 2712/2818 11008KT CAVOK 
     BECMG 2719/2722 VRB02KT 
     BECMG 2811/2813 17006KT
       
LKLN 271100Z AUTO 07006KT 360V170 CAVOK 23/11 Q1023
LKMT 271130Z 03008KT 350V070 9999 BKN043 20/10 Q1023 NOSIG
TAF LKMT 271100Z 2712/2818 05010KT 9999 SCT045 
     BECMG 2722/2800 VRB02KT 
     BECMG 2808/2810 23008KT
       
LKNA 271100Z 06008KT 020V090 CAVOK 21/08 Q1023 NOSIG RMK BLU BLU
TAF LKNA 270500Z 2706/2806 36008KT CAVOK 
     BECMG 2708/2710 SCT030 
     BECMG 2714/2716 CAVOK 
     BECMG 2718/2721 12006KT
       
LKPD 271100Z 04007KT 340V080 CAVOK 23/05 Q1023 NOSIG RMK BLU BLU
TAF LKPD 270500Z 2706/2806 VRB02KT CAVOK 
     BECMG 2707/2709 02006KT SCT030 
     BECMG 2710/2712 CAVOK 
     TEMPO 2710/2717 05012KT 
     BECMG 2713/2715 07008KT 
     BECMG 2720/2722 VRB02KT
       
LKPR 271130Z VRB03KT 9999 FEW049 22/09 Q1023 NOSIG
TAF LKPR 271100Z 2712/2818 09006KT CAVOK 
     BECMG 2801/2804 17008KT 
     BECMG 2811/2814 11006KT
       
LKTB 271130Z 06007KT 360V150 CAVOK 23/09 Q1022 NOSIG
TAF LKTB 271100Z 2712/2818 05010KT CAVOK 
     BECMG 2721/2800 VRB02KT 
     BECMG 2805/2808 15008KT
       
LKKV 271130Z 08007KT 050V130 9999 FEW046 21/09 Q1023
TAF LKKV 271100Z 2712/2818 11008KT CAVOK 
     BECMG 2719/2722 VRB02KT 
     BECMG 2811/2813 17006KT
       
LKKB 271100Z 08004KT 010V090 9999 SCT043 22/12 Q1024 NOSIG
TAF LKKB 270500Z 2706/2806 03004KT CAVOK 
     BECMG 2708/2710 08004KT SCT030 
     BECMG 2714/2716 12004KT CAVOK
       
LKKU 270900Z 01015KT 9999 FEW045 20/09 Q1022
LKLN 271100Z AUTO 07006KT 360V170 CAVOK 23/11 Q1023
LKMT 271130Z 03008KT 350V070 9999 BKN043 20/10 Q1023 NOSIG
TAF LKMT 271100Z 2712/2818 05010KT 9999 SCT045 
     BECMG 2722/2800 VRB02KT 
     BECMG 2808/2810 23008KT
       
LKNA 271100Z 06008KT 020V090 CAVOK 21/08 Q1023 NOSIG RMK BLU BLU
TAF LKNA 270500Z 2706/2806 36008KT CAVOK 
     BECMG 2708/2710 SCT030 
     BECMG 2714/2716 CAVOK 
     BECMG 2718/2721 12006KT
       
LKPD 271100Z 04007KT 340V080 CAVOK 23/05 Q1023 NOSIG RMK BLU BLU
TAF LKPD 270500Z 2706/2806 VRB02KT CAVOK 
     BECMG 2707/2709 02006KT SCT030 
     BECMG 2710/2712 CAVOK 
     TEMPO 2710/2717 05012KT 
     BECMG 2713/2715 07008KT 
     BECMG 2720/2722 VRB02KT
       
LKPR 271130Z VRB03KT 9999 FEW049 22/09 Q1023 NOSIG
TAF LKPR 271100Z 2712/2818 09006KT CAVOK 
     BECMG 2801/2804 17008KT 
     BECMG 2811/2814 11006KT
       
LKTB 271130Z 06007KT 360V150 CAVOK 23/09 Q1022 NOSIG
TAF LKTB 271100Z 2712/2818 05010KT CAVOK 
     BECMG 2721/2800 VRB02KT 
     BECMG 2805/2808 15008KT